Time;durP1;ratioP1;P1;durP2;ratioP2;P2;SDS_P1;SDS_P2;PMS_P1;PMS_P2;Temp;Humidity;BMP_temperature;BMP_pressure;BME280_temperature;BME280_humidity;BME280_pressure;Samples;Min_cycle;Max_cycle;Signal;HPM_P1;HPM_P2
2023/10/16 00:00:42;;;;;;;2.85;1.58;;;;;;;7.24;62.34;101082.56;10222025;28;20110;-60
2023/10/16 00:05:51;;;;;;;3.50;1.80;;;;;;;7.21;62.90;101076.66;10224000;28;20499;-59
2023/10/16 00:10:57;;;;;;;6.88;2.05;;;;;;;7.16;62.72;101085.09;10220486;28;20039;-59
2023/10/16 00:16:02;;;;;;;5.32;2.63;;;;;;;7.10;62.64;101081.13;10223770;28;20039;-59
2023/10/16 00:21:05;;;;;;;3.70;1.88;;;;;;;7.08;63.15;101090.28;10223990;28;20075;-59
2023/10/16 00:26:21;;;;;;;7.65;2.17;;;;;;;7.03;63.32;101093.34;10221457;28;20098;-59
2023/10/16 00:31:23;;;;;;;2.35;1.77;;;;;;;6.99;63.11;101091.06;10222641;28;20047;-59
2023/10/16 00:36:24;;;;;;;5.22;2.03;;;;;;;6.94;63.03;101099.50;10216032;28;20066;-59
2023/10/16 00:41:28;;;;;;;4.47;1.90;;;;;;;6.91;63.13;101097.94;10216535;28;20139;-58
2023/10/16 00:46:36;;;;;;;3.38;1.73;;;;;;;6.81;63.64;101097.03;10245955;28;20697;-58
2023/10/16 00:51:38;;;;;;;6.43;2.40;;;;;;;6.76;63.56;101093.94;10217828;28;20047;-58
2023/10/16 00:56:44;;;;;;;6.97;3.13;;;;;;;6.62;63.93;101088.94;10219114;28;20463;-58
2023/10/16 01:01:46;;;;;;;3.28;1.70;;;;;;;6.60;63.53;101080.22;10222414;28;20491;-59
2023/10/16 01:06:48;;;;;;;3.97;1.95;;;;;;;6.58;63.63;101087.50;10215305;28;20462;-58
2023/10/16 01:11:52;;;;;;;6.68;2.38;;;;;;;6.50;63.96;101078.31;10225335;28;20130;-59
2023/10/16 01:16:54;;;;;;;3.35;1.90;;;;;;;6.45;63.88;101082.34;10218599;28;20051;-58
2023/10/16 01:21:58;;;;;;;4.10;2.40;;;;;;;6.41;63.29;101079.09;10215402;28;20915;-59
2023/10/16 01:27:14;;;;;;;2.45;1.60;;;;;;;6.39;63.46;101078.38;10227345;28;20051;-59
2023/10/16 01:32:16;;;;;;;4.93;2.25;;;;;;;6.34;63.62;101081.44;10218515;28;20099;-58
2023/10/16 01:37:18;;;;;;;5.72;1.83;;;;;;;6.29;64.28;101089.00;10219678;28;20043;-58
2023/10/16 01:42:21;;;;;;;4.00;2.38;;;;;;;6.24;63.42;101080.53;10225484;28;20055;-58
2023/10/16 01:47:22;;;;;;;3.08;1.80;;;;;;;6.22;63.41;101082.50;10218521;28;20062;-58
2023/10/16 01:52:25;;;;;;;5.18;2.45;;;;;;;6.08;63.83;101093.47;10222124;28;20059;-58
2023/10/16 01:57:28;;;;;;;4.05;1.85;;;;;;;6.04;63.84;101090.22;10223790;28;20541;-59
2023/10/16 02:02:29;;;;;;;5.75;1.83;;;;;;;5.97;64.39;101089.03;10222013;28;20686;-59
2023/10/16 02:07:33;;;;;;;5.53;2.45;;;;;;;5.97;64.23;101080.19;10226175;28;20070;-59
2023/10/16 02:12:35;;;;;;;3.97;1.75;;;;;;;5.87;63.95;101072.09;10220139;28;20047;-58
2023/10/16 02:17:38;;;;;;;5.20;2.65;;;;;;;5.85;64.04;101068.69;10213220;28;20074;-61
2023/10/16 02:22:42;;;;;;;4.68;1.88;;;;;;;5.83;64.61;101060.81;10216200;28;20054;-58
2023/10/16 02:27:43;;;;;;;5.03;2.67;;;;;;;5.80;64.64;101060.22;10217716;28;20054;-58
2023/10/16 02:32:45;;;;;;;2.75;2.22;;;;;;;5.76;64.99;101059.63;10214595;28;20522;-59
2023/10/16 02:37:53;;;;;;;6.07;2.47;;;;;;;5.71;64.59;101056.50;10217095;28;20047;-58
2023/10/16 02:43:01;;;;;;;6.47;2.30;;;;;;;5.70;64.90;101060.97;10225416;28;20058;-58
2023/10/16 02:48:09;;;;;;;6.18;2.50;;;;;;;5.67;64.49;101065.72;10219287;28;20039;-58
2023/10/16 02:53:11;;;;;;;4.75;2.13;;;;;;;5.64;64.14;101064.16;10217993;28;20087;-60
2023/10/16 02:58:12;;;;;;;6.22;2.53;;;;;;;5.63;65.03;101064.25;10216407;28;20074;-58
2023/10/16 03:03:14;;;;;;;6.55;2.83;;;;;;;5.49;65.04;101076.06;10218612;28;20058;-58
2023/10/16 03:08:22;;;;;;;6.25;2.97;;;;;;;5.53;64.33;101069.53;10226930;28;20079;-59
2023/10/16 03:13:24;;;;;;;4.95;2.78;;;;;;;5.53;65.10;101064.19;10229318;28;20421;-59
2023/10/16 03:18:26;;;;;;;3.72;2.17;;;;;;;5.45;64.79;101069.28;10226178;28;20074;-59
2023/10/16 03:23:28;;;;;;;11.32;3.35;;;;;;;5.31;65.06;101067.75;10234840;28;20048;-59
2023/10/16 03:28:30;;;;;;;4.75;2.10;;;;;;;5.27;64.88;101069.84;10231163;28;20089;-59
2023/10/16 03:33:32;;;;;;;6.50;2.45;;;;;;;5.26;64.77;101069.94;10221946;28;20471;-60
2023/10/16 03:38:37;;;;;;;10.85;3.25;;;;;;;5.25;65.23;101068.25;10230250;28;20759;-59
2023/10/16 03:43:42;;;;;;;9.32;3.63;;;;;;;5.19;64.92;101072.25;10225729;28;20055;-62
2023/10/16 03:48:44;;;;;;;9.70;3.03;;;;;;;5.13;65.33;101064.75;10221268;28;21087;-60
2023/10/16 03:53:46;;;;;;;4.47;2.40;;;;;;;5.17;65.35;101063.53;10225687;28;20047;-60
2023/10/16 03:58:48;;;;;;;4.43;2.40;;;;;;;5.15;65.68;101060.13;10230535;28;20063;-60
2023/10/16 04:03:56;;;;;;;5.55;2.50;;;;;;;5.10;65.83;101057.00;10224385;28;20055;-59
2023/10/16 04:08:59;;;;;;;6.97;3.45;;;;;;;5.10;65.41;101065.00;10223288;28;20127;-60
2023/10/16 04:14:08;;;;;;;9.48;3.10;;;;;;;5.03;65.39;101064.63;10220059;28;20051;-59
2023/10/16 04:29:29;;;;;;;7.57;2.83;;;;;;;5.11;65.49;101064.03;10224832;28;20051;-60
2023/10/16 04:45:24;;;;;;;8.93;4.07;;;;;;;5.02;66.19;101046.13;10224907;28;20048;-60
2023/10/16 04:50:29;;;;;;;8.70;4.72;;;;;;;4.99;66.32;101046.34;10218183;28;20066;-60
2023/10/16 05:11:27;;;;;;;7.50;3.47;;;;;;;5.09;66.41;101028.66;10224859;28;20047;-60
2023/10/16 05:16:35;;;;;;;51.05;4.07;;;;;;;5.04;66.06;101014.88;10220136;28;20043;-60
2023/10/16 06:14:58;;;;;;;11.30;3.75;;;;;;;5.35;66.42;101035.41;10220430;28;20142;-59
2023/10/16 06:19:59;;;;;;;6.47;3.75;;;;;;;5.32;66.32;101038.28;10216513;28;20043;-59
2023/10/16 06:25:02;;;;;;;16.05;3.25;;;;;;;5.52;65.80;101036.66;10215773;28;20067;-60
2023/10/16 06:30:05;;;;;;;8.77;2.67;;;;;;;5.53;66.47;101042.88;10220935;28;20100;-60
2023/10/16 06:35:08;;;;;;;10.15;3.42;;;;;;;5.49;66.72;101044.94;10216132;28;20065;-59
2023/10/16 06:40:17;;;;;;;8.35;3.85;;;;;;;5.47;66.08;101054.00;10220770;28;20141;-59
2023/10/16 06:45:40;;;;;;;7.78;3.42;;;;;;;5.42;66.49;101059.72;10230910;28;20043;-58
2023/10/16 06:50:53;;;;;;;5.88;3.35;;;;;;;5.47;66.55;101070.88;10227573;28;20427;-59
2023/10/16 06:55:55;;;;;;;8.35;3.30;;;;;;;5.46;66.45;101076.31;10230913;28;20086;-59
2023/10/16 07:00:57;;;;;;;5.47;2.88;;;;;;;5.39;66.80;101072.44;10227462;28;20051;-59
2023/10/16 07:05:58;;;;;;;8.98;3.30;;;;;;;5.02;66.78;101075.44;10228100;28;20135;-60
2023/10/16 07:11:03;;;;;;;8.55;4.45;;;;;;;5.08;67.14;101081.09;10251121;28;21009;-58
2023/10/16 07:16:07;;;;;;;14.43;5.30;;;;;;;4.74;68.42;101089.09;10233275;28;20048;-58
2023/10/16 07:21:09;;;;;;;15.52;6.75;;;;;;;4.76;68.77;101092.50;10230208;28;20134;-57
2023/10/16 07:26:14;;;;;;;11.43;4.57;;;;;;;5.03;68.31;101096.59;10229220;28;20043;-59
2023/10/16 07:31:19;;;;;;;8.35;4.00;;;;;;;5.18;68.12;101093.72;10227928;28;20055;-59
2023/10/16 07:36:21;;;;;;;8.82;3.90;;;;;;;5.31;68.47;101099.72;10230660;28;20110;-58
2023/10/16 07:41:26;;;;;;;9.45;4.03;;;;;;;5.66;67.13;101096.88;10227377;28;20043;-59
2023/10/16 07:46:28;;;;;;;8.60;3.65;;;;;;;6.04;66.96;101082.22;10232898;28;20046;-57
2023/10/16 07:51:30;;;;;;;12.20;4.40;;;;;;;6.39;66.60;101089.06;10226155;28;20154;-58
2023/10/16 07:56:32;;;;;;;9.90;4.20;;;;;;;6.69;66.60;101082.91;10229407;28;20145;-60
2023/10/16 08:06:41;;;;;;;10.15;4.60;;;;;;;7.31;66.69;101080.22;10227211;28;20075;-59
2023/10/16 08:11:43;;;;;;;11.77;4.68;;;;;;;7.67;66.70;101061.84;10230188;28;20048;-58
2023/10/16 08:16:45;;;;;;;13.70;5.10;;;;;;;7.97;66.43;101065.38;10226754;28;20106;-57
2023/10/16 08:21:46;;;;;;;13.77;6.95;;;;;;;8.30;66.43;101061.38;10226231;28;20055;-59
2023/10/16 08:26:48;;;;;;;16.88;7.13;;;;;;;8.52;65.96;101066.44;10225575;28;20036;-60
2023/10/16 08:37:13;;;;;;;12.73;5.88;;;;;;;8.78;65.94;101048.88;10221376;28;20088;-60
2023/10/16 08:47:26;;;;;;;13.63;6.88;;;;;;;9.30;65.23;101047.34;10234756;28;20043;-59
2023/10/16 08:52:34;;;;;;;13.52;6.60;;;;;;;9.53;65.27;101050.44;10235663;28;20056;-59
2023/10/16 08:57:37;;;;;;;11.18;5.13;;;;;;;9.75;64.75;101050.16;10231144;28;20078;-60
2023/10/16 09:02:40;;;;;;;13.65;6.18;;;;;;;9.98;64.59;101054.06;10265192;28;20065;-60
2023/10/16 09:07:41;;;;;;;12.32;4.68;;;;;;;10.22;64.35;101057.94;10231160;28;20087;-59
2023/10/16 09:12:54;;;;;;;12.50;5.30;;;;;;;10.56;63.44;101051.81;10218670;28;20055;-60
2023/10/16 09:17:56;;;;;;;11.27;5.20;;;;;;;10.81;63.36;101050.13;10219773;28;20047;-60
2023/10/16 09:23:06;;;;;;;9.52;4.75;;;;;;;11.12;62.55;101042.38;10222285;28;20118;-61
2023/10/16 09:28:07;;;;;;;11.07;5.68;;;;;;;11.33;62.16;101036.53;10220461;28;20522;-60
2023/10/16 09:33:10;;;;;;;9.45;5.35;;;;;;;11.54;62.12;101037.94;10218299;28;20147;-60
2023/10/16 09:38:18;;;;;;;9.77;4.75;;;;;;;11.51;61.39;101036.41;10217334;28;20119;-59
2023/10/16 09:43:25;;;;;;;11.45;5.30;;;;;;;11.43;61.56;101039.94;10219913;28;20062;-60
2023/10/16 09:48:27;;;;;;;11.18;4.80;;;;;;;11.44;60.94;101033.53;10217228;28;20056;-60
2023/10/16 09:53:30;;;;;;;7.75;4.60;;;;;;;11.33;60.92;101050.00;10214630;28;20126;-60
2023/10/16 09:58:34;;;;;;;14.02;6.78;;;;;;;11.25;61.26;101053.50;10220626;28;20051;-60
2023/10/16 10:03:36;;;;;;;12.43;6.40;;;;;;;11.24;61.21;101051.00;10215999;28;20047;-61
2023/10/16 10:14:09;;;;;;;10.63;4.90;;;;;;;11.29;61.01;101032.47;10215755;28;20143;-60
2023/10/16 10:19:24;;;;;;;11.63;5.00;;;;;;;11.30;60.66;101039.56;10216679;28;21015;-60
2023/10/16 10:24:26;;;;;;;12.10;6.78;;;;;;;11.14;60.85;101032.28;10218091;28;20051;-60
2023/10/16 10:29:28;;;;;;;10.65;5.68;;;;;;;11.24;60.83;101032.16;10218978;28;20050;-60
2023/10/16 10:34:30;;;;;;;11.00;5.03;;;;;;;11.31;60.60;101028.63;10217971;28;20055;-60
2023/10/16 10:39:43;;;;;;;8.18;4.55;;;;;;;11.40;60.07;101028.66;10215829;28;20503;-61
2023/10/16 10:45:17;;;;;;;9.10;4.05;;;;;;;11.58;59.50;101020.44;10223282;28;20043;-60
2023/10/16 10:50:17;;;;;;;6.95;2.90;;;;;;;11.75;59.46;101003.31;10212345;28;20066;-60
2023/10/16 10:55:19;;;;;;;8.27;3.22;;;;;;;11.67;59.17;101001.44;10211147;28;20074;-60
2023/10/16 11:05:31;;;;;;;8.93;3.85;;;;;;;11.81;59.07;100981.06;10218401;28;20047;-60
2023/10/16 11:10:33;;;;;;;6.63;3.60;;;;;;;12.13;58.29;100974.00;10218323;28;20168;-60
2023/10/16 11:15:36;;;;;;;10.40;4.88;;;;;;;12.33;58.39;100957.47;10216772;28;20072;-57
2023/10/16 11:20:39;;;;;;;9.05;5.28;;;;;;;12.40;58.17;100951.22;10216496;28;20482;-58
2023/10/16 11:25:52;;;;;;;7.35;4.05;;;;;;;12.55;57.82;100943.22;10215560;28;20063;-59
2023/10/16 11:30:58;;;;;;;8.23;3.38;;;;;;;12.65;57.36;100933.06;10224535;28;20078;-60
2023/10/16 11:36:03;;;;;;;6.57;3.08;;;;;;;12.78;57.03;100919.03;10235174;28;20048;-59
2023/10/16 11:41:11;;;;;;;7.93;2.53;;;;;;;12.96;57.04;100928.72;10233364;28;20051;-59
2023/10/16 11:46:28;;;;;;;7.07;2.25;;;;;;;13.10;56.68;100919.84;10248627;28;20039;-60
2023/10/16 11:51:35;;;;;;;3.97;1.35;;;;;;;13.38;55.53;100913.94;10228484;28;20090;-59
2023/10/16 11:56:37;;;;;;;9.85;2.15;;;;;;;13.46;55.47;100908.47;10223819;28;20050;-57
2023/10/16 12:01:38;;;;;;;7.80;2.00;;;;;;;13.65;55.02;100902.59;10227014;28;20052;-59
2023/10/16 12:07:00;;;;;;;6.00;1.65;;;;;;;13.79;54.55;100892.81;10226550;28;20056;-57
2023/10/16 12:12:06;;;;;;;5.32;1.17;;;;;;;13.59;54.55;100887.09;10220018;28;20047;-59
2023/10/16 12:17:11;;;;;;;4.53;1.25;;;;;;;13.88;53.79;100869.25;10224653;28;20410;-58
2023/10/16 12:22:15;;;;;;;5.55;1.08;;;;;;;13.96;53.62;100866.50;10220652;28;20056;-63
2023/10/16 12:27:17;;;;;;;3.15;1.17;;;;;;;14.09;53.01;100861.25;10225299;28;20050;-63
2023/10/16 12:32:19;;;;;;;5.50;0.50;;;;;;;14.32;52.32;100857.63;10253354;28;20648;-63
2023/10/16 12:37:22;;;;;;;2.03;1.20;;;;;;;14.54;51.90;100853.09;10221964;28;20047;-63
2023/10/16 12:42:23;;;;;;;3.08;0.40;;;;;;;14.80;51.10;100851.75;10228087;28;20048;-62
2023/10/16 12:47:26;;;;;;;1.85;0.50;;;;;;;14.96;50.30;100848.81;10222310;28;20103;-61
2023/10/16 12:52:44;;;;;;;2.83;0.20;;;;;;;15.19;49.48;100845.91;10222602;28;20055;-64
2023/10/16 12:57:48;;;;;;;2.30;0.32;;;;;;;15.34;48.82;100837.69;10219708;28;20807;-62
2023/10/16 13:02:51;;;;;;;1.90;0.40;;;;;;;15.43;48.50;100827.56;10223266;28;21086;-62
2023/10/16 13:07:53;;;;;;;3.05;0.70;;;;;;;15.54;48.32;100829.75;10226900;28;20052;-63
2023/10/16 13:12:59;;;;;;;1.40;0.45;;;;;;;15.74;47.81;100820.94;10222642;28;20049;-64
2023/10/16 13:18:01;;;;;;;3.42;0.40;;;;;;;15.88;47.13;100814.59;10224878;28;20043;-63
2023/10/16 13:23:05;;;;;;;0.85;0.30;;;;;;;15.98;47.06;100808.81;10218728;28;20043;-63
2023/10/16 13:28:07;;;;;;;4.53;0.40;;;;;;;16.21;46.20;100808.47;10220913;28;20043;-64
2023/10/16 13:33:09;;;;;;;2.78;0.40;;;;;;;16.26;46.00;100804.13;10222051;28;20059;-63
2023/10/16 13:38:11;;;;;;;1.73;0.30;;;;;;;16.47;45.35;100805.06;10219927;28;20055;-62
2023/10/16 13:43:12;;;;;;;3.90;0.20;;;;;;;16.45;44.93;100801.72;10219504;28;20062;-61
2023/10/16 13:48:16;;;;;;;6.00;0.63;;;;;;;16.43;44.82;100804.63;10218371;28;20055;-65
2023/10/16 13:53:19;;;;;;;0.35;0.10;;;;;;;16.32;44.31;100801.66;10222510;28;20055;-63
2023/10/16 13:58:21;;;;;;;0.52;0.10;;;;;;;16.13;44.14;100797.81;10245018;28;20058;-64
2023/10/16 14:03:23;;;;;;;0.68;0.17;;;;;;;16.29;43.82;100800.19;10219846;28;20055;-63
2023/10/16 14:08:30;;;;;;;0.38;0.10;;;;;;;16.23;43.60;100790.97;10217785;28;20049;-65
2023/10/16 14:13:32;;;;;;;3.05;0.32;;;;;;;16.30;43.40;100790.16;10215236;28;20062;-64
2023/10/16 14:18:34;;;;;;;1.58;0.25;;;;;;;16.25;43.18;100786.19;10212753;28;20114;-62
2023/10/16 14:23:38;;;;;;;2.17;0.20;;;;;;;16.14;43.39;100789.47;10224756;28;20043;-66
2023/10/16 14:28:50;;;;;;;2.28;0.30;;;;;;;16.17;43.07;100785.50;10220391;28;20050;-65
2023/10/16 14:33:53;;;;;;;3.42;0.20;;;;;;;16.08;43.43;100778.59;10250839;28;20494;-65
2023/10/16 14:39:03;;;;;;;2.93;0.30;;;;;;;15.81;43.89;100790.13;10236475;28;20117;-66
2023/10/16 14:44:04;;;;;;;0.70;0.10;;;;;;;15.81;43.64;100792.00;10213737;28;22548;-65
2023/10/16 14:49:26;;;;;;;3.15;0.35;;;;;;;15.66;43.79;100787.53;10227265;28;20070;-66
2023/10/16 14:54:28;;;;;;;2.28;0.20;;;;;;;15.57;43.82;100777.84;10261857;28;20063;-65
2023/10/16 14:59:32;;;;;;;2.75;0.20;;;;;;;15.41;43.95;100770.03;10233305;28;20048;-64
2023/10/16 15:04:34;;;;;;;2.40;0.30;;;;;;;15.19;44.19;100767.38;10239149;28;20047;-64
2023/10/16 15:09:37;;;;;;;1.70;0.25;;;;;;;15.08;44.38;100763.31;10239443;28;20043;-63
2023/10/16 15:14:40;;;;;;;3.20;0.30;;;;;;;15.08;44.47;100765.19;10271960;28;20040;-63
2023/10/16 15:19:42;;;;;;;2.05;0.30;;;;;;;15.00;44.69;100765.34;10261026;28;20107;-61
2023/10/16 15:24:45;;;;;;;4.25;0.47;;;;;;;14.75;45.06;100760.34;10250139;28;20057;-63
2023/10/16 15:29:46;;;;;;;2.90;0.60;;;;;;;14.55;45.45;100757.38;10269081;28;20131;-63
2023/10/16 15:34:48;;;;;;;1.42;0.45;;;;;;;14.39;45.93;100754.91;10281061;28;20078;-62
2023/10/16 15:39:50;;;;;;;1.30;0.40;;;;;;;14.19;46.30;100752.81;10243659;28;20071;-60
2023/10/16 15:44:52;;;;;;;2.60;0.30;;;;;;;14.03;46.42;100748.47;10291955;28;20099;-64
2023/10/16 15:49:58;;;;;;;3.85;0.30;;;;;;;13.94;46.70;100743.34;10267721;28;20043;-62
2023/10/16 15:55:00;;;;;;;1.92;0.50;;;;;;;13.75;46.92;100745.63;10292506;28;20058;-61
2023/10/16 16:00:06;;;;;;;2.60;0.30;;;;;;;13.74;47.15;100741.22;10263078;28;20070;-61
2023/10/16 16:05:09;;;;;;;3.83;0.50;;;;;;;13.52;47.17;100737.59;10244166;28;20057;-60
2023/10/16 16:10:11;;;;;;;3.20;0.35;;;;;;;13.42;47.51;100742.44;10270460;28;20138;-61
2023/10/16 16:15:16;;;;;;;5.25;0.73;;;;;;;13.35;47.73;100750.44;10263791;28;20055;-60
2023/10/16 16:20:18;;;;;;;2.33;0.40;;;;;;;13.24;47.50;100745.47;10258523;28;20039;-60
2023/10/16 16:25:20;;;;;;;4.45;0.30;;;;;;;13.01;48.37;100753.59;10263296;28;20054;-60
2023/10/16 16:30:22;;;;;;;0.90;0.45;;;;;;;12.85;48.84;100758.09;10268787;28;20051;-60
2023/10/16 16:35:24;;;;;;;1.83;0.40;;;;;;;12.70;49.21;100762.63;10251414;28;20054;-60
2023/10/16 16:40:25;;;;;;;2.70;0.47;;;;;;;12.63;49.73;100767.03;10222001;28;20042;-58
2023/10/16 16:45:28;;;;;;;4.15;0.70;;;;;;;12.59;49.34;100763.84;10236523;28;20040;-60
2023/10/16 16:50:30;;;;;;;2.45;0.60;;;;;;;12.48;50.05;100773.22;10249149;28;20122;-61
2023/10/16 16:55:32;;;;;;;1.30;0.30;;;;;;;12.36;50.10;100769.25;10230498;28;20074;-60
2023/10/16 17:00:34;;;;;;;3.70;1.00;;;;;;;12.27;50.27;100776.53;10225795;28;20055;-61
2023/10/16 17:05:35;;;;;;;4.32;0.50;;;;;;;12.23;50.80;100772.50;10228755;28;20047;-61
2023/10/16 17:10:37;;;;;;;2.05;0.90;;;;;;;12.18;50.79;100768.66;10245614;28;20055;-62
2023/10/16 17:15:39;;;;;;;2.85;1.00;;;;;;;12.09;51.14;100771.38;10253150;28;20055;-62
2023/10/16 17:20:40;;;;;;;2.58;1.02;;;;;;;11.90;51.69;100772.63;10231241;28;20118;-61
2023/10/16 17:25:42;;;;;;;4.70;0.90;;;;;;;11.83;52.04;100770.81;10246885;28;20458;-61
2023/10/16 17:30:45;;;;;;;2.03;0.85;;;;;;;11.74;52.30;100785.31;10224817;28;20059;-61
2023/10/16 17:35:47;;;;;;;3.20;0.90;;;;;;;11.57;52.80;100790.75;10238680;28;20594;-59
2023/10/16 17:40:49;;;;;;;3.92;1.42;;;;;;;11.44;53.38;100788.56;10204178;28;20407;-61
2023/10/16 17:45:51;;;;;;;4.10;1.20;;;;;;;11.36;52.99;100783.19;10234431;28;20117;-60
2023/10/16 17:50:54;;;;;;;8.35;3.60;;;;;;;11.24;53.31;100795.31;10246739;28;20047;-59
2023/10/16 17:55:58;;;;;;;3.33;1.98;;;;;;;11.12;53.84;100794.81;10252414;28;20054;-60
2023/10/16 18:01:00;;;;;;;5.85;2.10;;;;;;;11.01;54.02;100793.28;10213893;28;20047;-61
2023/10/16 18:06:02;;;;;;;6.85;2.15;;;;;;;10.90;54.45;100791.78;10255807;28;20048;-60
2023/10/16 18:11:04;;;;;;;4.95;1.98;;;;;;;10.93;54.73;100785.22;10229828;28;20130;-59
2023/10/16 18:16:06;;;;;;;4.97;1.33;;;;;;;10.90;54.56;100791.78;10225945;28;20047;-59
2023/10/16 18:21:08;;;;;;;1.45;0.70;;;;;;;10.83;54.94;100798.00;10227585;28;20119;-58
2023/10/16 18:26:10;;;;;;;2.65;1.02;;;;;;;10.70;54.69;100803.84;10223634;28;20047;-59
2023/10/16 18:31:12;;;;;;;3.38;1.38;;;;;;;10.56;55.24;100796.44;10225194;28;20078;-58
2023/10/16 18:36:14;;;;;;;3.55;2.03;;;;;;;10.45;55.59;100786.84;10221595;28;20067;-59
2023/10/16 18:41:17;;;;;;;3.20;1.15;;;;;;;10.26;56.23;100798.69;10228838;28;20055;-58
2023/10/16 18:46:18;;;;;;;4.07;1.00;;;;;;;10.08;56.46;100807.69;10222720;28;20115;-58
2023/10/16 18:51:21;;;;;;;4.60;1.40;;;;;;;9.99;56.64;100797.06;10226124;28;20059;-59
2023/10/16 18:56:23;;;;;;;4.60;1.75;;;;;;;9.91;56.82;100803.22;10224436;28;20109;-57
2023/10/16 19:01:25;;;;;;;2.60;1.13;;;;;;;9.80;57.06;100800.84;10228284;28;20051;-56
2023/10/16 19:06:27;;;;;;;2.60;1.23;;;;;;;9.72;57.07;100790.91;10232234;28;20147;-57
2023/10/16 19:11:30;;;;;;;7.93;2.10;;;;;;;9.61;57.54;100797.38;10227279;28;20067;-57
2023/10/16 19:16:32;;;;;;;3.60;1.73;;;;;;;9.53;57.76;100794.63;10243084;28;20538;-59
2023/10/16 19:21:34;;;;;;;7.97;3.47;;;;;;;9.42;57.81;100789.53;10200773;28;20263;-59
2023/10/16 19:26:36;;;;;;;5.45;3.65;;;;;;;9.36;58.12;100774.06;10227442;28;20106;-58
2023/10/16 19:31:41;;;;;;;11.07;5.30;;;;;;;9.24;58.25;100798.50;10230748;28;20087;-60
2023/10/16 19:36:46;;;;;;;10.05;3.67;;;;;;;9.19;58.67;100794.59;10242806;28;20055;-58
2023/10/16 19:41:48;;;;;;;8.57;2.58;;;;;;;9.11;58.71;100806.09;10236921;28;20066;-59
2023/10/16 19:46:50;;;;;;;4.20;1.58;;;;;;;8.98;59.27;100809.16;10224370;28;20054;-59
2023/10/16 19:51:51;;;;;;;2.70;1.17;;;;;;;8.96;59.30;100810.31;10239830;28;20040;-60
2023/10/16 19:56:53;;;;;;;4.40;1.27;;;;;;;8.93;59.92;100817.66;10255229;28;20043;-59
2023/10/16 20:01:54;;;;;;;4.70;1.88;;;;;;;9.01;59.80;100802.66;10254169;28;20103;-59
2023/10/16 20:06:56;;;;;;;4.32;1.92;;;;;;;9.06;59.47;100817.28;10254061;28;20069;-58
2023/10/16 20:11:57;;;;;;;4.68;1.50;;;;;;;9.01;59.63;100822.25;10212766;28;20039;-58
2023/10/16 20:17:18;;;;;;;2.55;1.27;;;;;;;9.04;59.47;100816.56;10216002;28;20115;-58
2023/10/16 20:22:20;;;;;;;4.32;1.48;;;;;;;9.05;59.68;100807.53;10217428;28;20541;-59
2023/10/16 20:27:24;;;;;;;4.15;1.27;;;;;;;9.03;59.78;100806.84;10220225;28;20433;-59
2023/10/16 20:32:26;;;;;;;4.72;1.90;;;;;;;9.00;59.96;100806.31;10217344;28;20043;-59
2023/10/16 20:37:27;;;;;;;4.15;2.50;;;;;;;8.79;60.51;100814.66;10220363;28;20055;-59
2023/10/16 20:42:29;;;;;;;5.47;2.17;;;;;;;8.63;61.21;100826.06;10220313;28;20043;-60
2023/10/16 20:47:31;;;;;;;6.22;1.58;;;;;;;8.58;61.37;100831.88;10217132;28;20056;-59
2023/10/16 20:52:33;;;;;;;8.38;2.70;;;;;;;8.62;61.09;100825.22;10218251;28;20052;-60
2023/10/16 20:57:36;;;;;;;10.52;2.13;;;;;;;8.64;60.73;100819.72;10217438;28;20510;-58
2023/10/16 21:02:38;;;;;;;5.78;2.33;;;;;;;8.61;61.00;100825.38;10235639;28;20722;-58
2023/10/16 21:07:40;;;;;;;5.65;2.40;;;;;;;8.59;60.59;100816.63;10216226;28;20043;-57
2023/10/16 21:12:41;;;;;;;6.85;2.60;;;;;;;8.49;60.78;100825.59;10217232;28;20051;-58
2023/10/16 21:17:44;;;;;;;8.18;2.33;;;;;;;8.29;61.37;100829.34;10222897;28;20042;-58
2023/10/16 21:22:49;;;;;;;4.63;2.10;;;;;;;8.18;61.90;100825.03;10214585;28;20047;-58
2023/10/16 21:27:52;;;;;;;5.20;1.77;;;;;;;8.22;61.88;100821.06;10213524;28;20039;-58
2023/10/16 21:32:53;;;;;;;5.38;2.00;;;;;;;8.24;61.57;100812.91;10225122;28;20051;-58
2023/10/16 21:37:57;;;;;;;3.28;1.80;;;;;;;8.22;61.24;100817.56;10224148;28;20055;-59
2023/10/16 21:43:00;;;;;;;4.88;2.10;;;;;;;8.14;61.91;100805.75;10218415;28;20381;-58
2023/10/16 21:48:02;;;;;;;7.10;1.98;;;;;;;8.08;62.34;100810.88;10222312;28;20044;-59
2023/10/16 21:53:03;;;;;;;4.00;1.65;;;;;;;8.08;62.36;100803.66;10218470;28;20040;-58
2023/10/16 21:58:05;;;;;;;7.82;3.10;;;;;;;8.09;62.05;100807.19;10219017;28;20059;-58
2023/10/16 22:03:07;;;;;;;9.27;1.55;;;;;;;8.17;62.00;100798.41;10217668;28;20078;-58
2023/10/16 22:08:09;;;;;;;6.35;1.77;;;;;;;8.22;62.48;100801.50;10219199;28;20059;-58
2023/10/16 22:13:10;;;;;;;9.38;2.53;;;;;;;8.24;62.61;100803.03;10216189;28;20054;-58
2023/10/16 22:18:12;;;;;;;5.65;2.55;;;;;;;8.27;62.68;100792.03;10219120;28;20055;-58
2023/10/16 22:23:13;;;;;;;5.55;2.58;;;;;;;8.31;62.41;100782.69;10215210;28;20109;-58
2023/10/16 22:28:16;;;;;;;4.00;1.65;;;;;;;8.33;62.79;100782.50;10216895;28;20051;-58
2023/10/16 22:33:17;;;;;;;7.55;1.63;;;;;;;8.27;62.67;100777.75;10215749;28;20056;-58
2023/10/16 22:38:19;;;;;;;5.07;2.00;;;;;;;8.28;62.97;100777.63;10215916;28;20138;-59
2023/10/16 22:43:20;;;;;;;5.70;1.95;;;;;;;8.26;62.83;100771.56;10217945;28;20051;-58
2023/10/16 22:48:22;;;;;;;4.05;1.70;;;;;;;8.34;62.88;100765.47;10220382;28;20051;-58
2023/10/16 22:53:24;;;;;;;8.25;2.05;;;;;;;8.31;63.13;100771.97;10217535;28;20063;-59
2023/10/16 22:58:26;;;;;;;4.85;1.70;;;;;;;8.31;63.06;100768.44;10220844;28;20039;-58
2023/10/16 23:03:28;;;;;;;4.85;2.47;;;;;;;8.26;63.17;100776.09;10219419;28;20043;-57
2023/10/16 23:08:31;;;;;;;5.13;1.70;;;;;;;8.24;62.75;100767.38;10214797;28;20046;-59
2023/10/16 23:13:33;;;;;;;3.58;1.60;;;;;;;8.17;63.65;100766.28;10245355;28;20073;-59
2023/10/16 23:18:34;;;;;;;3.42;1.58;;;;;;;8.19;63.05;100759.75;10219018;28;20090;-61
2023/10/16 23:23:36;;;;;;;5.53;1.75;;;;;;;8.21;63.03;100747.06;10223758;28;20051;-61
2023/10/16 23:28:38;;;;;;;5.75;2.00;;;;;;;8.19;63.40;100746.38;10224258;28;20051;-60
2023/10/16 23:33:40;;;;;;;7.03;1.50;;;;;;;8.14;63.49;100746.84;10219596;28;20052;-61
2023/10/16 23:38:45;;;;;;;5.15;1.85;;;;;;;8.09;63.66;100745.59;10230018;28;20134;-58
2023/10/16 23:48:59;;;;;;;4.75;2.00;;;;;;;7.94;63.31;100739.91;10224574;28;20130;-60
2023/10/16 23:59:20;;;;;;;5.50;1.40;;;;;;;7.75;63.37;100730.16;10222670;28;20046;-59
